Time;durP1;ratioP1;P1;durP2;ratioP2;P2;SDS_P1;SDS_P2;PMS_P1;PMS_P2;Temp;Humidity;BMP_temperature;BMP_pressure;BME280_temperature;BME280_humidity;BME280_pressure;Samples;Min_cycle;Max_cycle;Signal;HPM_P1;HPM_P2
2021/10/17 06:29:06;;;;;;;7.55;2.40;;;17.80;70.30;;;;;;4771283;30;20071;-71
2021/10/17 06:31:31;;;;;;;7.57;2.70;;;17.80;70.40;;;;;;4772118;30;20137;-71
2021/10/17 06:33:57;;;;;;;8.05;2.50;;;17.80;70.50;;;;;;4772917;30;20070;-72
2021/10/17 06:36:23;;;;;;;9.18;2.15;;;17.80;70.50;;;;;;4772736;30;20124;-73
2021/10/17 06:38:48;;;;;;;5.88;2.17;;;17.80;70.50;;;;;;4773072;30;20444;-75
2021/10/17 06:41:14;;;;;;;5.88;2.25;;;17.80;70.60;;;;;;4773039;30;20091;-72
2021/10/17 06:43:40;;;;;;;9.98;3.13;;;17.90;70.60;;;;;;4772755;30;20060;-72
2021/10/17 06:46:05;;;;;;;10.10;4.20;;;17.90;70.40;;;;;;4772387;30;20043;-72
2021/10/17 06:48:31;;;;;;;6.60;2.38;;;17.90;67.10;;;;;;4772999;30;20397;-72
2021/10/17 06:50:57;;;;;;;8.05;3.03;;;17.90;69.40;;;;;;4772809;30;20047;-74
2021/10/17 06:53:22;;;;;;;9.05;2.33;;;17.90;69.30;;;;;;4772696;30;20075;-72
2021/10/17 06:55:48;;;;;;;7.25;2.35;;;18.00;69.40;;;;;;4772695;30;20054;-73
2021/10/17 06:58:14;;;;;;;5.90;2.58;;;18.10;69.50;;;;;;4772651;30;20095;-73
2021/10/17 07:00:39;;;;;;;8.48;2.45;;;18.20;69.30;;;;;;4772586;30;20135;-72
2021/10/17 07:03:05;;;;;;;6.63;2.17;;;18.30;69.00;;;;;;4772276;30;20070;-72
2021/10/17 07:05:31;;;;;;;7.82;2.00;;;18.40;68.80;;;;;;4772510;30;20055;-73
2021/10/17 07:07:56;;;;;;;4.00;1.73;;;18.50;68.30;;;;;;4772450;30;20044;-72
2021/10/17 07:10:22;;;;;;;4.13;2.20;;;18.60;68.20;;;;;;4772338;30;20083;-72
2021/10/17 07:12:48;;;;;;;6.95;2.28;;;18.60;68.10;;;;;;4772527;30;20044;-72
2021/10/17 07:15:13;;;;;;;6.78;2.03;;;18.60;68.10;;;;;;4772639;30;20055;-72
2021/10/17 07:17:39;;;;;;;5.63;2.33;;;18.60;67.90;;;;;;4772755;30;20124;-71
2021/10/17 07:20:05;;;;;;;4.90;1.75;;;18.70;67.80;;;;;;4772822;30;20375;-72
2021/10/17 07:22:31;;;;;;;5.93;2.20;;;18.70;67.60;;;;;;4772441;30;20472;-72
2021/10/17 07:24:57;;;;;;;5.38;2.03;;;18.70;67.50;;;;;;4771908;30;20083;-72
2021/10/17 07:27:23;;;;;;;4.30;1.85;;;18.80;67.50;;;;;;4777806;30;20069;-72
2021/10/17 07:29:49;;;;;;;5.85;2.05;;;18.60;67.30;;;;;;4787229;30;20063;-73
2021/10/17 07:32:14;;;;;;;7.93;1.83;;;18.60;67.50;;;;;;4772051;30;20058;-73
2021/10/17 07:34:40;;;;;;;5.22;2.08;;;18.60;67.60;;;;;;4772245;30;20456;-72
2021/10/17 09:52:25;;;;;;;11.35;3.67;;;18.10;70.70;;;;;;4736216;30;19926;-74
2021/10/17 09:55:04;;;;;;;9.25;3.42;;;18.10;70.70;;;;;;4737760;30;20055;-74
2021/10/17 09:57:30;;;;;;;8.65;3.20;;;18.10;70.70;;;;;;4738297;30;20143;-73
2021/10/17 09:59:56;;;;;;;8.95;3.17;;;18.20;70.60;;;;;;4738648;30;20135;-74
2021/10/17 10:02:23;;;;;;;6.05;2.50;;;18.40;70.40;;;;;;4737593;30;20368;-74
2021/10/17 10:04:51;;;;;;;11.07;2.97;;;18.50;70.30;;;;;;4738134;30;20075;-74
2021/10/17 10:07:25;;;;;;;8.38;2.95;;;18.50;70.10;;;;;;4738358;30;20092;-74
2021/10/17 10:09:53;;;;;;;4.70;2.28;;;18.60;70.00;;;;;;4738327;30;20048;-73
2021/10/17 10:12:20;;;;;;;5.75;2.33;;;18.70;69.80;;;;;;4738244;30;20061;-74
2021/10/17 10:14:50;;;;;;;6.97;2.80;;;18.80;69.60;;;;;;4737857;30;20052;-76
2021/10/17 10:17:18;;;;;;;5.80;2.38;;;18.90;68.70;;;;;;4737804;30;20060;-73
2021/10/17 10:19:44;;;;;;;9.02;3.05;;;18.90;69.10;;;;;;4737851;30;20045;-73
2021/10/17 10:22:12;;;;;;;9.98;3.20;;;19.00;69.10;;;;;;4737782;30;20053;-72
2021/10/17 10:24:38;;;;;;;6.78;3.28;;;19.00;68.80;;;;;;4737887;30;20055;-72
2021/10/17 10:27:05;;;;;;;7.03;2.50;;;19.00;69.00;;;;;;4737499;30;20052;-78
2021/10/17 10:29:33;;;;;;;7.63;2.78;;;19.00;68.90;;;;;;4740287;30;20118;-74
2021/10/17 10:32:04;;;;;;;6.93;2.72;;;19.00;69.00;;;;;;4737184;30;20052;-71
2021/10/17 10:34:36;;;;;;;6.43;2.70;;;18.90;69.00;;;;;;4737773;30;20067;-73
2021/10/17 10:37:26;;;;;;;6.47;3.10;;;18.90;69.10;;;;;;4737827;30;20421;-73
2021/10/17 10:40:01;;;;;;;6.47;2.72;;;18.80;69.10;;;;;;4737405;30;20083;-72
2021/10/17 10:42:41;;;;;;;8.57;2.80;;;18.80;70.20;;;;;;4753100;30;20052;-74
2021/10/17 10:45:22;;;;;;;7.72;2.85;;;18.80;70.00;;;;;;4739774;30;20056;-73
2021/10/17 10:48:08;;;;;;;10.52;3.78;;;18.70;70.40;;;;;;4739681;30;20056;-72
2021/10/17 10:50:36;;;;;;;8.20;3.40;;;18.60;72.50;;;;;;4743794;30;20061;-72
2021/10/17 10:53:03;;;;;;;7.20;2.97;;;18.60;73.30;;;;;;4737431;30;20460;-73
2021/10/17 10:55:50;;;;;;;10.13;3.72;;;18.60;74.10;;;;;;4737480;30;20076;-74
2021/10/17 10:58:36;;;;;;;7.93;2.65;;;18.60;72.90;;;;;;4737161;30;20130;-72
2021/10/17 11:01:02;;;;;;;7.15;2.67;;;18.50;72.50;;;;;;4736467;30;20476;-70
2021/10/17 11:03:43;;;;;;;7.95;3.03;;;18.50;72.30;;;;;;4736962;30;20067;-71
2021/10/17 11:06:09;;;;;;;6.75;3.05;;;18.50;71.90;;;;;;4737289;30;20487;-71
2021/10/17 11:08:37;;;;;;;6.20;2.35;;;18.50;71.70;;;;;;4737399;30;20057;-71
2021/10/17 11:11:03;;;;;;;8.13;2.92;;;18.40;71.40;;;;;;4737307;30;20063;-75
2021/10/17 11:13:43;;;;;;;5.88;2.55;;;18.40;71.60;;;;;;4737522;30;20053;-72
2021/10/17 11:16:22;;;;;;;7.55;3.45;;;18.40;71.50;;;;;;4748132;30;20060;-71
2021/10/17 11:18:58;;;;;;;6.90;3.17;;;18.30;71.10;;;;;;4748429;30;20478;-71
2021/10/17 11:21:29;;;;;;;7.70;3.53;;;18.30;71.40;;;;;;4736656;30;20048;-71
2021/10/17 11:23:55;;;;;;;7.75;3.17;;;18.30;71.50;;;;;;4736728;30;20207;-71
2021/10/17 11:26:21;;;;;;;10.35;3.25;;;18.30;71.50;;;;;;4721212;30;20482;-72
2021/10/17 11:28:50;;;;;;;7.40;3.22;;;18.30;71.40;;;;;;4736787;30;20056;-73
2021/10/17 11:31:23;;;;;;;6.28;3.03;;;18.30;71.20;;;;;;4721532;30;20113;-73
2021/10/17 11:33:50;;;;;;;6.47;2.87;;;18.40;71.20;;;;;;4736585;30;20161;-72
2021/10/17 11:36:17;;;;;;;6.45;2.83;;;18.40;71.20;;;;;;4736786;30;20049;-72
2021/10/17 11:38:44;;;;;;;6.13;2.83;;;18.40;71.00;;;;;;4736163;30;20060;-72
2021/10/17 11:41:16;;;;;;;6.53;3.03;;;18.40;70.90;;;;;;4736836;30;20226;-73
2021/10/17 11:43:47;;;;;;;9.18;2.88;;;18.40;70.80;;;;;;4721464;30;20067;-73
2021/10/17 11:46:15;;;;;;;7.90;3.20;;;18.50;70.90;;;;;;4736375;30;20366;-73
2021/10/17 11:48:42;;;;;;;7.88;2.95;;;18.50;70.90;;;;;;4736708;30;20056;-71
2021/10/17 11:51:13;;;;;;;3.78;2.58;;;18.40;70.90;;;;;;4736373;30;20071;-71
2021/10/17 11:53:39;;;;;;;8.45;2.95;;;18.40;70.90;;;;;;4736840;30;20074;-71
2021/10/17 11:56:09;;;;;;;7.15;3.08;;;18.40;70.90;;;;;;4736509;30;20060;-72
2021/10/17 11:58:36;;;;;;;6.18;2.83;;;18.40;71.10;;;;;;4736418;30;20055;-72
2021/10/17 12:01:09;;;;;;;7.80;3.13;;;18.30;71.00;;;;;;4736089;30;20419;-71
2021/10/17 12:03:35;;;;;;;8.20;3.53;;;18.30;71.10;;;;;;4721093;30;20056;-71
2021/10/17 12:06:02;;;;;;;16.30;3.78;;;18.30;71.40;;;;;;4736636;30;20048;-71
2021/10/17 12:08:34;;;;;;;13.68;3.63;;;18.20;72.00;;;;;;4747525;30;20125;-71
2021/10/17 12:11:06;;;;;;;11.32;2.90;;;18.30;72.20;;;;;;4755049;30;20074;-70
2021/10/17 12:13:59;;;;;;;10.43;2.95;;;18.20;72.40;;;;;;4757411;30;20139;-72
2021/10/17 12:16:28;;;;;;;12.23;2.92;;;18.20;72.80;;;;;;4753330;30;20072;-71
2021/10/17 12:19:07;;;;;;;13.23;3.90;;;18.20;72.80;;;;;;4724416;30;20099;-71
2021/10/17 12:21:39;;;;;;;10.38;3.38;;;18.20;73.00;;;;;;4740098;30;20065;-71
2021/10/17 12:24:09;;;;;;;12.05;3.28;;;18.20;73.30;;;;;;4739561;30;20055;-72
2021/10/17 12:26:36;;;;;;;8.50;2.53;;;18.20;73.30;;;;;;4739322;30;20052;-71
2021/10/17 12:29:13;;;;;;;10.63;2.90;;;18.20;73.50;;;;;;4739702;30;20061;-71
2021/10/17 12:31:43;;;;;;;9.60;2.95;;;18.20;73.50;;;;;;4723082;30;21798;-71
2021/10/17 12:34:10;;;;;;;11.77;3.35;;;18.20;73.60;;;;;;4739477;30;20061;-71
2021/10/17 12:36:38;;;;;;;10.40;2.85;;;18.20;73.60;;;;;;4739523;30;20059;-70
2021/10/17 12:39:07;;;;;;;11.13;3.40;;;18.10;73.50;;;;;;4739126;30;20059;-71
2021/10/17 12:41:34;;;;;;;9.52;3.15;;;18.10;73.50;;;;;;4739407;30;20048;-78
2021/10/17 12:44:02;;;;;;;8.18;3.60;;;18.10;73.50;;;;;;4739330;30;20423;-73
2021/10/17 12:46:29;;;;;;;7.68;3.22;;;18.10;73.40;;;;;;4739332;30;20067;-71
2021/10/17 12:48:55;;;;;;;12.25;3.30;;;18.10;73.40;;;;;;4736675;30;20124;-71
2021/10/17 12:51:40;;;;;;;5.55;2.90;;;18.10;73.40;;;;;;4738757;30;20130;-70
2021/10/17 12:54:27;;;;;;;9.60;2.65;;;18.10;73.30;;;;;;4739509;30;20057;-70
2021/10/17 12:56:52;;;;;;;10.68;2.88;;;18.10;73.20;;;;;;4739344;30;20060;-71
2021/10/17 12:59:20;;;;;;;11.98;3.22;;;18.10;73.20;;;;;;4738731;30;20097;-71
2021/10/17 13:02:10;;;;;;;9.68;3.15;;;18.20;73.30;;;;;;4738709;30;20063;-70
2021/10/17 13:04:53;;;;;;;7.65;2.65;;;18.20;73.20;;;;;;4739040;30;20064;-70
2021/10/17 13:07:31;;;;;;;10.73;3.28;;;18.20;73.00;;;;;;4748707;30;20060;-70
2021/10/17 13:10:08;;;;;;;8.27;4.07;;;18.20;72.50;;;;;;4738854;30;20068;-74
2021/10/17 13:12:37;;;;;;;7.78;4.18;;;18.00;72.60;;;;;;4721711;30;20106;-71
2021/10/17 13:15:14;;;;;;;8.25;4.07;;;17.90;72.90;;;;;;4721561;30;20049;-72
2021/10/17 13:17:51;;;;;;;10.50;4.80;;;17.90;73.10;;;;;;4729045;30;20060;-71
2021/10/17 13:20:22;;;;;;;7.53;3.70;;;17.80;73.20;;;;;;4738929;30;20092;-73
2021/10/17 13:22:50;;;;;;;9.93;3.05;;;17.80;73.60;;;;;;4737961;30;20061;-70
2021/10/17 13:25:18;;;;;;;11.00;3.42;;;17.70;73.80;;;;;;4738681;30;20125;-71
2021/10/17 13:27:45;;;;;;;8.52;3.08;;;17.80;73.90;;;;;;4723229;30;20107;-71
2021/10/17 13:30:11;;;;;;;9.65;3.35;;;17.80;73.90;;;;;;4738981;30;20049;-71
2021/10/17 13:32:37;;;;;;;7.97;2.80;;;17.80;73.80;;;;;;4738536;30;20053;-71
2021/10/17 13:35:04;;;;;;;7.95;3.38;;;17.80;73.80;;;;;;4738632;30;20472;-71
2021/10/17 13:37:30;;;;;;;5.07;3.00;;;17.80;73.70;;;;;;4738711;30;20053;-71
2021/10/17 13:39:56;;;;;;;7.15;2.88;;;17.80;73.70;;;;;;4738384;30;20440;-71
2021/10/17 13:42:23;;;;;;;8.77;3.15;;;17.90;73.60;;;;;;4738738;30;20374;-70
2021/10/17 13:44:49;;;;;;;9.02;3.28;;;17.90;73.40;;;;;;4738485;30;20110;-71
2021/10/17 13:47:15;;;;;;;6.38;2.92;;;18.00;73.20;;;;;;4734098;30;20056;-71
2021/10/17 13:49:41;;;;;;;4.95;3.00;;;17.90;73.00;;;;;;4720536;30;20061;-71
2021/10/17 13:52:07;;;;;;;8.80;3.60;;;18.00;72.70;;;;;;4720796;30;20071;-71
2021/10/17 13:54:33;;;;;;;11.95;3.20;;;18.00;72.60;;;;;;4720384;30;20140;-71
2021/10/17 13:56:59;;;;;;;5.28;2.70;;;18.00;72.50;;;;;;4721549;30;20136;-72
2021/10/17 13:59:27;;;;;;;10.95;4.25;;;18.00;72.30;;;;;;4721049;30;20049;-74
2021/10/17 14:01:54;;;;;;;14.20;5.28;;;18.10;71.40;;;;;;4726794;30;20483;-74
2021/10/17 14:04:20;;;;;;;10.50;5.30;;;18.10;70.70;;;;;;4737757;30;20141;-76
2021/10/17 14:06:46;;;;;;;10.95;5.22;;;18.00;69.90;;;;;;4738325;30;20063;-74
2021/10/17 14:09:12;;;;;;;10.02;4.97;;;18.00;69.60;;;;;;4739089;30;20152;-73
2021/10/17 14:11:38;;;;;;;10.05;4.55;;;18.00;69.40;;;;;;4738289;30;20048;-73
2021/10/17 14:14:04;;;;;;;12.05;4.65;;;18.00;69.40;;;;;;4737608;30;20083;-72
2021/10/17 14:16:30;;;;;;;13.77;4.45;;;18.10;69.70;;;;;;4739503;30;20052;-71
2021/10/17 14:18:56;;;;;;;12.00;4.57;;;18.10;69.90;;;;;;4722946;30;20045;-72
2021/10/17 14:21:22;;;;;;;11.13;4.63;;;18.10;70.10;;;;;;4737389;30;20139;-73
2021/10/17 14:23:47;;;;;;;9.32;4.05;;;18.10;69.80;;;;;;4737845;30;20445;-72
2021/10/17 14:26:14;;;;;;;10.15;4.25;;;18.10;69.80;;;;;;4737837;30;20060;-72
2021/10/17 14:28:40;;;;;;;15.07;4.95;;;18.10;69.80;;;;;;4737811;30;20056;-73
2021/10/17 14:31:06;;;;;;;9.82;3.38;;;18.10;69.50;;;;;;4737031;30;20067;-73
2021/10/17 14:33:32;;;;;;;12.30;4.05;;;18.10;69.60;;;;;;4737977;30;20134;-72
2021/10/17 14:35:58;;;;;;;14.00;3.60;;;18.00;69.70;;;;;;4738098;30;20056;-73
2021/10/17 14:38:23;;;;;;;10.52;3.88;;;18.00;69.80;;;;;;4737866;30;20133;-72
2021/10/17 14:40:49;;;;;;;13.18;3.70;;;18.00;70.00;;;;;;4737645;30;20071;-73
2021/10/17 14:43:16;;;;;;;9.90;3.78;;;18.00;70.00;;;;;;4737848;30;20052;-75
2021/10/17 14:45:42;;;;;;;10.20;3.95;;;18.00;70.00;;;;;;4737125;30;20063;-74
2021/10/17 14:48:08;;;;;;;8.70;3.72;;;18.00;70.00;;;;;;4738212;30;20053;-72
2021/10/17 14:50:34;;;;;;;6.05;3.22;;;18.00;70.00;;;;;;4737175;30;20483;-72
2021/10/17 14:53:00;;;;;;;10.80;3.25;;;18.00;70.10;;;;;;4737802;30;20057;-74
2021/10/17 14:55:25;;;;;;;9.00;3.60;;;18.00;70.00;;;;;;4725447;30;20055;-75
2021/10/17 14:57:51;;;;;;;8.23;4.53;;;18.10;69.70;;;;;;4738704;30;20141;-75
2021/10/17 15:00:18;;;;;;;10.73;4.32;;;18.10;69.40;;;;;;4722445;30;20155;-74
2021/10/17 15:02:44;;;;;;;7.63;4.07;;;18.10;69.20;;;;;;4737583;30;20082;-73
2021/10/17 15:05:10;;;;;;;11.88;4.90;;;18.20;69.10;;;;;;4736913;30;20048;-73
2021/10/17 15:07:36;;;;;;;10.32;5.13;;;18.20;68.80;;;;;;4721732;30;20151;-71
2021/10/17 15:10:05;;;;;;;9.43;4.15;;;18.20;68.50;;;;;;4737077;30;20049;-73
2021/10/17 15:12:31;;;;;;;13.20;4.28;;;18.20;68.50;;;;;;4737127;30;20123;-72
2021/10/17 15:14:57;;;;;;;9.48;3.80;;;18.20;69.30;;;;;;4737071;30;20084;-71
2021/10/17 15:17:23;;;;;;;11.85;4.28;;;18.20;68.90;;;;;;4721947;30;20065;-70
2021/10/17 15:19:49;;;;;;;14.85;4.95;;;18.20;69.40;;;;;;4737016;30;20151;-71
2021/10/17 15:22:16;;;;;;;9.45;4.57;;;18.20;69.90;;;;;;4737204;30;20064;-72
2021/10/17 15:24:42;;;;;;;10.82;4.30;;;18.20;70.00;;;;;;4737299;30;20057;-72
2021/10/17 15:27:08;;;;;;;11.85;3.70;;;18.30;70.20;;;;;;4736444;30;20052;-72
2021/10/17 15:29:34;;;;;;;11.05;3.70;;;18.30;70.40;;;;;;4736902;30;20060;-73
2021/10/17 15:32:02;;;;;;;13.07;3.60;;;18.30;70.60;;;;;;4735862;30;20056;-74
2021/10/17 15:34:29;;;;;;;10.32;3.55;;;18.30;70.70;;;;;;4736917;30;20052;-73
2021/10/17 15:36:55;;;;;;;10.73;3.33;;;18.30;70.80;;;;;;4737055;30;20048;-71
2021/10/17 15:39:21;;;;;;;6.28;3.08;;;18.40;70.80;;;;;;4736497;30;20051;-72
2021/10/17 15:41:49;;;;;;;5.88;3.35;;;18.40;70.80;;;;;;4736090;30;20118;-72
2021/10/17 15:44:18;;;;;;;10.32;2.90;;;18.50;70.70;;;;;;4736427;30;20449;-72
2021/10/17 15:46:49;;;;;;;11.38;3.30;;;18.60;70.60;;;;;;4736576;30;20360;-71
2021/10/17 18:48:50;;;;;;;5.68;3.05;;;17.90;71.00;;;;;;5513801;24;20273;-68
2021/10/17 18:51:16;;;;;;;8.25;2.88;;;17.90;72.00;;;;;;4786901;30;20447;-69
2021/10/17 18:53:42;;;;;;;5.03;3.08;;;17.90;71.00;;;;;;4789023;30;20134;-69
2021/10/17 18:56:14;;;;;;;5.35;2.53;;;17.90;71.00;;;;;;4784595;30;20055;-69
2021/10/17 18:58:43;;;;;;;8.20;3.08;;;17.90;70.90;;;;;;4772825;30;20359;-68
2021/10/17 19:01:09;;;;;;;4.55;2.95;;;17.80;71.10;;;;;;4785644;30;20130;-69
2021/10/17 19:03:35;;;;;;;8.70;3.50;;;17.80;70.90;;;;;;4790992;30;20065;-69
2021/10/17 19:06:01;;;;;;;6.93;3.45;;;17.80;70.30;;;;;;4790027;30;20078;-69
2021/10/17 19:08:27;;;;;;;5.82;3.42;;;17.80;69.70;;;;;;4786950;30;20043;-69
2021/10/17 19:10:53;;;;;;;5.20;3.60;;;17.80;69.20;;;;;;4772193;30;20051;-69
2021/10/17 19:13:19;;;;;;;10.27;4.35;;;17.80;69.00;;;;;;4787466;30;20082;-69
2021/10/17 19:15:44;;;;;;;6.00;3.40;;;17.80;68.30;;;;;;4773203;30;20051;-69
2021/10/17 19:18:11;;;;;;;7.32;3.67;;;17.80;68.00;;;;;;4791210;29;20103;-69
2021/10/17 19:20:37;;;;;;;7.45;3.80;;;17.80;67.80;;;;;;4779374;30;20460;-70
2021/10/17 19:23:04;;;;;;;11.35;4.53;;;17.80;67.50;;;;;;4790595;30;20055;-70
2021/10/17 19:25:30;;;;;;;7.68;4.32;;;17.80;67.10;;;;;;4790165;30;20053;-69
2021/10/17 19:27:56;;;;;;;6.03;4.07;;;17.80;66.70;;;;;;4790534;30;20051;-69
2021/10/17 19:30:22;;;;;;;7.07;4.35;;;17.80;66.50;;;;;;4789758;30;20043;-70
2021/10/17 19:32:51;;;;;;;6.00;3.83;;;17.80;66.10;;;;;;4790087;30;20051;-69
2021/10/17 19:35:21;;;;;;;8.10;4.00;;;17.80;65.80;;;;;;4790150;30;20471;-69
2021/10/17 19:37:57;;;;;;;7.78;4.20;;;17.70;65.70;;;;;;4790132;30;20119;-69
2021/10/17 19:40:25;;;;;;;5.90;3.65;;;17.70;65.40;;;;;;4790224;30;20352;-69
2021/10/17 19:42:51;;;;;;;5.60;3.92;;;17.70;65.30;;;;;;4789839;30;20055;-72
2021/10/17 19:45:18;;;;;;;5.18;3.58;;;17.70;65.10;;;;;;4785862;29;20061;-70
2021/10/17 19:47:45;;;;;;;7.88;3.90;;;17.70;65.10;;;;;;4788249;29;20051;-68
2021/10/17 19:50:14;;;;;;;5.75;3.70;;;17.60;65.10;;;;;;4789013;29;20048;-69
2021/10/17 19:52:41;;;;;;;8.80;3.83;;;17.70;64.90;;;;;;4789336;29;20067;-71
2021/10/17 19:55:07;;;;;;;7.05;3.65;;;17.60;64.60;;;;;;4786995;30;20394;-69
2021/10/17 19:57:33;;;;;;;7.78;3.75;;;17.70;64.70;;;;;;4787193;29;20168;-69
2021/10/17 19:59:59;;;;;;;6.28;3.63;;;17.70;64.50;;;;;;4785490;29;20530;-69
2021/10/17 20:02:26;;;;;;;6.78;3.60;;;17.60;64.60;;;;;;4785360;30;20066;-69
2021/10/17 20:04:52;;;;;;;5.82;3.50;;;17.60;64.70;;;;;;4799704;29;20455;-69
2021/10/17 20:07:19;;;;;;;11.02;4.00;;;17.60;64.80;;;;;;4762160;30;20185;-68
2021/10/17 20:09:45;;;;;;;6.47;3.78;;;17.60;64.50;;;;;;4786555;30;20047;-68
2021/10/17 20:12:11;;;;;;;8.77;4.07;;;17.60;64.40;;;;;;4789437;30;20058;-68
